METAR Data
IDs: Format: Raw Decoded Include TAF

Data at: 0145 UTC 01 Mar 2021

UUOB 010130Z 30002MPS 9999 OVC006 M00/M01 Q1021 R29/290055 NOSIG